Time;durP1;ratioP1;P1;durP2;ratioP2;P2;SDS_P1;SDS_P2;PMS_P1;PMS_P2;Temp;Humidity;BMP_temperature;BMP_pressure;BME280_temperature;BME280_humidity;BME280_pressure;Samples;Min_cycle;Max_cycle;Signal;HPM_P1;HPM_P2
2022/11/10 00:00:56;;;;;;;1.57;1.30;;;12.50;99.90;;;;;;5108785;28;20249;-72
2022/11/10 00:03:27;;;;;;;2.10;1.40;;;12.40;99.90;;;;;;5109096;28;20353;-72
2022/11/10 00:05:55;;;;;;;1.87;1.10;;;12.40;99.90;;;;;;5109085;28;20289;-72
2022/11/10 00:08:22;;;;;;;4.20;1.20;;;12.50;99.90;;;;;;5108903;28;20728;-72
2022/11/10 00:16:59;;;;;;;1.80;1.10;;;12.50;99.90;;;;;;5108527;27;20650;-72
2022/11/10 00:19:09;;;;;;;4.33;1.50;;;12.40;99.90;;;;;;5108693;28;20215;-71
2022/11/10 00:21:36;;;;;;;3.70;1.20;;;12.40;99.90;;;;;;5127042;27;20842;-73
2022/11/10 00:24:03;;;;;;;2.90;1.23;;;12.40;99.90;;;;;;5110188;27;20745;-74
2022/11/10 00:26:30;;;;;;;4.67;1.30;;;12.40;99.90;;;;;;5108952;28;20292;-73
2022/11/10 00:28:58;;;;;;;1.40;1.30;;;12.40;99.90;;;;;;5114219;27;20284;-74
2022/11/10 00:31:27;;;;;;;3.87;1.40;;;12.50;99.90;;;;;;5128887;27;20289;-74
2022/11/10 00:33:54;;;;;;;3.03;1.20;;;12.50;99.90;;;;;;5112657;27;20224;-74
2022/11/10 00:36:21;;;;;;;1.97;1.40;;;12.50;99.90;;;;;;5129258;27;20252;-74
2022/11/10 00:38:50;;;;;;;4.50;1.83;;;12.60;99.90;;;;;;5129370;27;20622;-74
2022/11/10 00:41:17;;;;;;;2.30;1.50;;;12.60;99.90;;;;;;5125106;27;20285;-74
2022/11/10 00:43:49;;;;;;;3.77;1.17;;;12.60;99.90;;;;;;5108633;28;20226;-74
2022/11/10 00:46:18;;;;;;;5.37;1.87;;;12.60;99.90;;;;;;5108174;28;20248;-70
2022/11/10 00:48:44;;;;;;;2.30;1.60;;;12.60;99.90;;;;;;5128625;27;20288;-70
2022/11/10 00:51:20;;;;;;;3.77;1.63;;;12.60;99.90;;;;;;5128463;27;20721;-71
2022/11/10 00:53:47;;;;;;;2.77;1.33;;;12.60;99.90;;;;;;5128902;27;20284;-70
2022/11/10 00:56:14;;;;;;;4.50;1.60;;;12.60;99.90;;;;;;5124251;27;20238;-71
2022/11/10 00:58:41;;;;;;;3.17;1.80;;;12.70;99.90;;;;;;5108365;28;20297;-71
2022/11/10 01:01:09;;;;;;;3.53;1.60;;;12.60;99.90;;;;;;5107923;28;20264;-71
2022/11/10 01:03:37;;;;;;;2.83;1.30;;;12.60;99.90;;;;;;5125286;27;20253;-71
2022/11/10 01:06:05;;;;;;;2.13;1.30;;;12.60;99.90;;;;;;5128861;27;20288;-71
2022/11/10 01:08:33;;;;;;;2.77;1.30;;;12.60;99.90;;;;;;5128708;27;20288;-71
2022/11/10 01:11:03;;;;;;;2.57;1.50;;;12.60;99.90;;;;;;5124995;27;20271;-71
2022/11/10 01:13:30;;;;;;;2.93;1.40;;;12.60;99.90;;;;;;5108046;28;20677;-71
2022/11/10 01:15:57;;;;;;;3.77;1.50;;;12.60;99.90;;;;;;5107742;28;20202;-71
2022/11/10 01:18:24;;;;;;;2.00;1.17;;;12.60;99.90;;;;;;5108081;28;20641;-71
2022/11/10 01:20:53;;;;;;;1.23;1.03;;;12.60;99.90;;;;;;5107877;28;20640;-71
2022/11/10 01:23:19;;;;;;;2.93;1.37;;;12.60;99.90;;;;;;5108107;28;20721;-71
2022/11/10 01:25:46;;;;;;;2.63;1.43;;;12.60;99.90;;;;;;5108956;27;20631;-71
2022/11/10 01:28:13;;;;;;;4.83;1.63;;;12.60;99.90;;;;;;5149115;27;20639;-71
2022/11/10 01:30:40;;;;;;;1.50;1.10;;;12.50;99.90;;;;;;5140890;27;20656;-71
2022/11/10 01:33:07;;;;;;;2.97;1.43;;;12.60;99.90;;;;;;5128468;27;20237;-71
2022/11/10 01:35:34;;;;;;;3.97;1.70;;;12.50;99.90;;;;;;5128219;27;20221;-71
2022/11/10 01:38:02;;;;;;;4.33;1.67;;;12.50;99.90;;;;;;5128069;27;20660;-71
2022/11/10 01:40:29;;;;;;;4.60;1.57;;;12.50;99.90;;;;;;5128337;27;20324;-72
2022/11/10 01:42:58;;;;;;;3.07;1.07;;;12.50;99.90;;;;;;5129759;27;20242;-72
2022/11/10 01:45:45;;;;;;;5.43;2.30;;;12.40;99.90;;;;;;5131917;27;20660;-72
2022/11/10 01:48:17;;;;;;;4.70;1.23;;;12.40;99.90;;;;;;5121526;27;20205;-72
2022/11/10 01:50:47;;;;;;;2.73;1.20;;;12.40;99.90;;;;;;5111694;28;20286;-72
2022/11/10 01:53:20;;;;;;;2.40;1.30;;;12.40;99.90;;;;;;5111829;28;20297;-72
2022/11/10 01:55:48;;;;;;;3.43;1.43;;;12.40;99.90;;;;;;5111875;28;20284;-72
2022/11/10 01:58:17;;;;;;;3.10;1.30;;;12.40;99.90;;;;;;5114963;27;20197;-72
2022/11/10 02:00:44;;;;;;;2.20;1.33;;;12.40;99.90;;;;;;5131763;27;20236;-72
2022/11/10 02:03:15;;;;;;;2.67;1.50;;;12.40;99.90;;;;;;5132301;27;20289;-72
2022/11/10 02:05:44;;;;;;;3.07;1.53;;;12.40;99.90;;;;;;5132228;27;20225;-72
2022/11/10 02:08:15;;;;;;;2.70;1.40;;;12.40;99.90;;;;;;5120471;27;20296;-70
2022/11/10 02:10:43;;;;;;;3.93;1.70;;;12.40;99.90;;;;;;5111749;28;20277;-70
2022/11/10 02:13:11;;;;;;;3.07;1.17;;;12.40;99.90;;;;;;5110963;28;20743;-70
2022/11/10 02:15:38;;;;;;;2.20;1.43;;;12.40;99.90;;;;;;5116377;27;20293;-69
2022/11/10 02:18:05;;;;;;;2.63;1.30;;;12.40;99.90;;;;;;5111345;28;20287;-70
2022/11/10 02:20:32;;;;;;;2.43;1.50;;;12.40;99.90;;;;;;5111289;28;20721;-69
2022/11/10 02:23:10;;;;;;;5.83;1.87;;;12.40;99.90;;;;;;5111252;28;20216;-70
2022/11/10 02:25:37;;;;;;;3.90;1.40;;;12.40;99.90;;;;;;5111480;28;20247;-71
2022/11/10 02:28:04;;;;;;;3.43;1.50;;;12.40;99.90;;;;;;5113495;27;20206;-71
2022/11/10 02:30:31;;;;;;;3.33;1.60;;;12.40;99.90;;;;;;5111162;28;20281;-70
2022/11/10 02:32:58;;;;;;;3.33;1.47;;;12.40;99.90;;;;;;5111242;28;20213;-71
2022/11/10 02:35:25;;;;;;;2.63;1.70;;;12.40;99.90;;;;;;5111507;28;20302;-71
2022/11/10 02:37:52;;;;;;;4.10;1.50;;;12.40;99.90;;;;;;5111089;27;20313;-71
2022/11/10 02:40:20;;;;;;;4.53;1.63;;;12.40;99.90;;;;;;5131676;27;20293;-71
2022/11/10 02:42:47;;;;;;;5.50;1.73;;;12.40;99.90;;;;;;5131509;27;20261;-71
2022/11/10 02:45:14;;;;;;;3.40;1.60;;;12.40;99.90;;;;;;5131107;27;20228;-71
2022/11/10 02:47:41;;;;;;;3.20;1.27;;;12.40;99.90;;;;;;5131611;27;20209;-71
2022/11/10 02:50:08;;;;;;;2.63;1.67;;;12.50;99.90;;;;;;5131613;27;20288;-72
2022/11/10 02:52:35;;;;;;;6.57;1.73;;;12.40;99.90;;;;;;5131213;27;20734;-71
2022/11/10 02:55:02;;;;;;;5.27;1.60;;;12.40;99.90;;;;;;5131208;27;20288;-71
2022/11/10 02:57:30;;;;;;;3.90;1.40;;;12.40;99.90;;;;;;5146395;27;20209;-71
2022/11/10 02:59:57;;;;;;;3.03;1.37;;;12.40;99.90;;;;;;5151405;27;20319;-72
2022/11/10 03:02:24;;;;;;;4.23;1.63;;;12.40;99.90;;;;;;5152084;27;20236;-71
2022/11/10 03:04:51;;;;;;;3.17;1.50;;;12.40;99.90;;;;;;5136482;27;20268;-72
2022/11/10 03:07:18;;;;;;;6.70;1.80;;;12.30;99.90;;;;;;5130947;27;20289;-71
2022/11/10 03:09:45;;;;;;;5.30;1.67;;;12.40;99.90;;;;;;5130643;27;20206;-71
2022/11/10 03:12:11;;;;;;;3.10;1.50;;;12.40;99.90;;;;;;5130728;27;20250;-71
2022/11/10 03:14:40;;;;;;;1.60;1.40;;;12.30;99.90;;;;;;5126567;27;20277;-72
2022/11/10 03:17:06;;;;;;;3.93;1.67;;;12.30;99.90;;;;;;5110295;28;20210;-71
2022/11/10 03:19:34;;;;;;;4.13;1.43;;;12.30;99.90;;;;;;5110370;28;20296;-71
2022/11/10 03:22:01;;;;;;;3.40;1.47;;;12.30;99.90;;;;;;5109899;28;20297;-72
2022/11/10 03:24:27;;;;;;;3.13;1.30;;;12.20;99.90;;;;;;5128625;27;20339;-70
2022/11/10 03:26:54;;;;;;;4.90;1.77;;;12.20;99.90;;;;;;5120050;27;20735;-71
2022/11/10 03:29:21;;;;;;;3.83;1.67;;;12.20;99.90;;;;;;5109509;28;20792;-71
2022/11/10 03:31:49;;;;;;;5.10;1.60;;;12.20;99.90;;;;;;5109437;28;20673;-70
2022/11/10 03:34:17;;;;;;;4.10;1.73;;;12.20;99.90;;;;;;5130070;27;20293;-70
2022/11/10 03:36:44;;;;;;;2.73;1.60;;;12.10;99.90;;;;;;5130302;27;20331;-70
2022/11/10 03:39:11;;;;;;;2.43;1.33;;;12.10;99.90;;;;;;5130469;27;20205;-72
2022/11/10 03:41:38;;;;;;;4.33;1.73;;;12.10;99.90;;;;;;5130253;27;20299;-72
2022/11/10 03:44:05;;;;;;;3.87;1.53;;;12.00;99.90;;;;;;5129944;27;20219;-72
2022/11/10 03:46:32;;;;;;;5.30;2.03;;;12.00;99.90;;;;;;5129861;27;20292;-72
2022/11/10 03:49:00;;;;;;;6.50;1.97;;;12.00;99.90;;;;;;5130192;27;20257;-73
2022/11/10 03:51:27;;;;;;;5.43;1.83;;;12.00;99.90;;;;;;5121302;27;20293;-72
2022/11/10 03:53:54;;;;;;;4.40;1.80;;;11.90;99.90;;;;;;5109804;27;20220;-73
2022/11/10 03:56:21;;;;;;;3.27;1.63;;;11.90;99.90;;;;;;5120359;27;20674;-71
2022/11/10 03:58:48;;;;;;;3.07;1.70;;;11.90;99.90;;;;;;5150457;27;20278;-72
2022/11/10 04:01:14;;;;;;;2.50;1.47;;;11.80;99.90;;;;;;5133658;27;20802;-70
2022/11/10 04:03:41;;;;;;;4.33;1.43;;;11.80;99.90;;;;;;5130045;27;20305;-71
2022/11/10 04:09:01;;;;;;;2.53;1.90;;;11.70;99.90;;;;;;5108974;28;20313;-70
2022/11/10 04:16:58;;;;;;;4.20;1.80;;;11.60;99.90;;;;;;5106587;28;20298;-70
2022/11/10 04:19:25;;;;;;;2.60;1.70;;;11.60;99.90;;;;;;5106516;28;20305;-70
2022/11/10 04:21:54;;;;;;;4.93;1.90;;;11.50;99.90;;;;;;5106406;28;20661;-70
2022/11/10 04:24:21;;;;;;;5.30;1.60;;;11.50;99.90;;;;;;5106661;27;20689;-70
2022/11/10 04:26:48;;;;;;;3.73;1.80;;;11.50;99.90;;;;;;5106456;28;20297;-69
2022/11/10 04:29:16;;;;;;;3.90;2.07;;;11.50;99.90;;;;;;5106499;28;20725;-70
2022/11/10 04:31:43;;;;;;;7.37;2.17;;;11.50;99.90;;;;;;5106023;28;20203;-70
2022/11/10 04:34:12;;;;;;;4.20;1.83;;;11.50;99.90;;;;;;5120335;27;20665;-72
2022/11/10 04:36:40;;;;;;;3.63;1.77;;;11.50;99.90;;;;;;5127161;27;20229;-72
2022/11/10 04:39:09;;;;;;;4.00;1.80;;;11.40;99.90;;;;;;5127035;27;21110;-71
2022/11/10 04:41:36;;;;;;;5.20;1.77;;;11.40;99.90;;;;;;5125361;27;20602;-71
2022/11/10 04:44:03;;;;;;;4.90;1.80;;;11.40;99.90;;;;;;5122377;27;20222;-71
2022/11/10 04:46:32;;;;;;;4.40;2.00;;;11.40;99.90;;;;;;5117764;27;20202;-71
2022/11/10 04:48:59;;;;;;;5.47;1.97;;;11.30;99.90;;;;;;5125914;27;20244;-71
2022/11/10 04:51:28;;;;;;;4.67;1.87;;;11.30;99.90;;;;;;5126676;27;20284;-71
2022/11/10 04:53:56;;;;;;;3.43;1.93;;;11.20;99.90;;;;;;5126908;27;20292;-71
2022/11/10 04:56:25;;;;;;;7.57;1.97;;;11.20;99.90;;;;;;5125267;27;20743;-71
2022/11/10 04:58:53;;;;;;;3.33;1.73;;;11.20;99.90;;;;;;5116673;27;20697;-71
2022/11/10 05:01:21;;;;;;;4.07;1.73;;;11.20;99.90;;;;;;5115520;27;20739;-71
2022/11/10 05:03:49;;;;;;;6.40;1.97;;;11.20;99.90;;;;;;5117927;27;20204;-71
2022/11/10 05:06:17;;;;;;;8.17;2.20;;;11.20;99.90;;;;;;5125256;27;20567;-71
2022/11/10 05:08:45;;;;;;;2.63;1.90;;;11.10;99.90;;;;;;5116034;27;20230;-71
2022/11/10 05:11:12;;;;;;;5.00;1.70;;;11.10;99.90;;;;;;5120898;27;20683;-71
2022/11/10 05:13:40;;;;;;;5.67;2.33;;;11.10;99.90;;;;;;5125245;27;20212;-71
2022/11/10 05:16:08;;;;;;;5.13;2.07;;;11.10;99.90;;;;;;5117112;27;20732;-71
2022/11/10 05:18:35;;;;;;;2.47;1.77;;;11.00;99.90;;;;;;5116355;27;20284;-71
2022/11/10 05:21:02;;;;;;;2.90;1.90;;;11.00;99.90;;;;;;5115545;27;20703;-71
2022/11/10 05:23:38;;;;;;;7.70;2.00;;;11.00;99.90;;;;;;5115494;27;20205;-71
2022/11/10 05:26:06;;;;;;;4.03;1.90;;;10.90;99.90;;;;;;5115841;27;20722;-72
2022/11/10 05:28:33;;;;;;;8.17;2.00;;;10.90;99.90;;;;;;5116664;27;20250;-71
2022/11/10 05:31:02;;;;;;;6.73;1.80;;;10.90;99.90;;;;;;5112523;27;20293;-72
2022/11/10 05:33:29;;;;;;;3.93;1.77;;;10.90;99.90;;;;;;5111185;27;20237;-71
2022/11/10 05:35:56;;;;;;;5.90;1.87;;;10.90;99.90;;;;;;5116931;27;20198;-71
2022/11/10 05:38:23;;;;;;;3.67;2.00;;;10.90;99.90;;;;;;5116684;27;21002;-71
2022/11/10 05:40:50;;;;;;;3.43;2.33;;;10.80;99.90;;;;;;5115811;28;20289;-71
2022/11/10 05:43:17;;;;;;;4.53;1.73;;;10.80;99.90;;;;;;5114379;27;20201;-71
2022/11/10 05:45:52;;;;;;;5.63;2.20;;;10.80;99.90;;;;;;5118318;27;20786;-71
2022/11/10 05:48:21;;;;;;;4.60;2.00;;;10.80;99.90;;;;;;5122509;27;20196;-71
2022/11/10 05:50:49;;;;;;;4.17;2.07;;;10.70;99.90;;;;;;5114096;27;20814;-71
2022/11/10 05:53:16;;;;;;;4.10;2.30;;;10.80;99.90;;;;;;5121166;27;20212;-71
2022/11/10 05:55:43;;;;;;;5.00;1.80;;;10.70;99.90;;;;;;5115512;28;20333;-71
2022/11/10 05:58:10;;;;;;;4.47;2.20;;;10.70;99.90;;;;;;5125384;27;20360;-71
2022/11/10 06:00:37;;;;;;;7.43;2.00;;;10.70;99.90;;;;;;5115168;27;20312;-72
2022/11/10 06:03:05;;;;;;;7.17;1.87;;;10.70;99.90;;;;;;5117881;27;20264;-71
2022/11/10 06:05:35;;;;;;;5.87;1.93;;;10.70;99.90;;;;;;5116921;28;20336;-71
2022/11/10 06:08:03;;;;;;;6.23;2.20;;;10.70;99.90;;;;;;5120637;27;20284;-71
2022/11/10 06:10:31;;;;;;;4.07;2.13;;;10.60;99.90;;;;;;5116621;28;20207;-71
2022/11/10 06:12:58;;;;;;;5.23;2.07;;;10.60;99.90;;;;;;5120876;27;20309;-71
2022/11/10 06:15:25;;;;;;;4.93;1.80;;;10.60;99.90;;;;;;5119461;27;20205;-71
2022/11/10 06:17:52;;;;;;;4.93;1.87;;;10.60;99.90;;;;;;5119064;28;20293;-71
2022/11/10 06:20:20;;;;;;;6.63;2.20;;;10.60;99.90;;;;;;5116719;28;20206;-71
2022/11/10 06:22:59;;;;;;;5.60;2.07;;;10.50;99.90;;;;;;5118649;27;20284;-71
2022/11/10 06:25:27;;;;;;;4.23;2.07;;;10.50;99.90;;;;;;5106034;28;20218;-71
2022/11/10 06:27:53;;;;;;;6.37;2.13;;;10.50;99.90;;;;;;5119390;27;20244;-71
2022/11/10 06:30:21;;;;;;;4.70;2.10;;;10.50;99.90;;;;;;5123934;27;20615;-71
2022/11/10 06:32:47;;;;;;;3.80;2.10;;;10.40;99.90;;;;;;5130757;27;20297;-71
2022/11/10 06:35:14;;;;;;;3.30;1.80;;;10.40;99.90;;;;;;5131708;27;20296;-71
2022/11/10 06:37:41;;;;;;;4.57;1.97;;;10.40;99.90;;;;;;5131098;27;20631;-71
2022/11/10 06:40:12;;;;;;;4.70;2.20;;;10.40;99.90;;;;;;5130593;27;20244;-71
2022/11/10 06:42:39;;;;;;;2.87;1.70;;;10.40;99.90;;;;;;5133733;27;20210;-71
2022/11/10 06:45:07;;;;;;;5.80;2.20;;;10.40;99.90;;;;;;5150532;27;20293;-71
2022/11/10 06:47:34;;;;;;;4.23;2.10;;;10.40;99.90;;;;;;5131031;27;20236;-71
2022/11/10 06:50:00;;;;;;;6.17;2.40;;;10.40;99.90;;;;;;5128134;27;20683;-70
2022/11/10 06:52:27;;;;;;;7.53;2.17;;;10.40;99.90;;;;;;5131293;27;20263;-70
2022/11/10 06:54:54;;;;;;;6.20;2.90;;;10.40;99.90;;;;;;5126463;27;20205;-71
2022/11/10 06:57:22;;;;;;;6.70;2.10;;;10.40;99.90;;;;;;5145303;27;20301;-70
2022/11/10 06:59:49;;;;;;;3.80;1.80;;;10.40;99.90;;;;;;5121175;27;20618;-71
2022/11/10 07:02:16;;;;;;;6.00;2.00;;;10.50;99.90;;;;;;5127782;27;20251;-71
2022/11/10 07:04:43;;;;;;;3.17;2.10;;;10.50;99.90;;;;;;5129599;27;20312;-70
2022/11/10 07:07:10;;;;;;;7.37;2.40;;;10.60;99.90;;;;;;5118678;27;20290;-70
2022/11/10 07:09:37;;;;;;;7.27;2.43;;;10.60;99.90;;;;;;5121361;27;20632;-71
2022/11/10 07:12:05;;;;;;;6.13;2.03;;;10.70;99.90;;;;;;5129983;27;20737;-70
2022/11/10 07:14:33;;;;;;;5.83;2.13;;;10.70;99.90;;;;;;5129165;27;20237;-70
2022/11/10 07:17:00;;;;;;;5.40;2.20;;;10.70;99.90;;;;;;5127347;27;20727;-71
2022/11/10 07:19:31;;;;;;;5.13;2.10;;;10.70;99.90;;;;;;5143592;27;20242;-70
2022/11/10 07:21:58;;;;;;;5.37;2.27;;;10.80;99.90;;;;;;5125143;27;20205;-70
2022/11/10 07:24:25;;;;;;;5.57;2.50;;;10.80;99.90;;;;;;5122092;27;20292;-70
2022/11/10 07:26:52;;;;;;;5.67;2.43;;;10.80;99.90;;;;;;5124833;27;20237;-71
2022/11/10 07:29:18;;;;;;;7.17;2.43;;;10.80;99.90;;;;;;5132819;27;20292;-71
2022/11/10 07:31:47;;;;;;;6.00;2.10;;;10.80;99.90;;;;;;5119758;27;20229;-71
2022/11/10 07:34:14;;;;;;;8.13;2.20;;;10.80;99.90;;;;;;5121932;27;20229;-71
2022/11/10 07:36:41;;;;;;;8.97;2.83;;;10.80;99.90;;;;;;5114456;27;20332;-71
2022/11/10 07:39:08;;;;;;;6.43;2.23;;;10.80;99.90;;;;;;5122136;27;20822;-71
2022/11/10 07:41:34;;;;;;;6.10;2.47;;;10.80;99.90;;;;;;5119426;27;20197;-70
2022/11/10 07:44:01;;;;;;;7.20;2.20;;;10.90;99.90;;;;;;5125150;27;20301;-71
2022/11/10 07:46:29;;;;;;;5.07;2.50;;;10.90;99.90;;;;;;5121804;27;20701;-70
2022/11/10 07:48:58;;;;;;;6.97;2.30;;;11.00;99.90;;;;;;5123001;27;20584;-71
2022/11/10 07:51:25;;;;;;;6.00;2.30;;;11.10;99.90;;;;;;5121658;27;20201;-71
2022/11/10 07:53:52;;;;;;;8.33;2.87;;;11.20;99.90;;;;;;5118290;27;20688;-71
2022/11/10 07:56:19;;;;;;;7.70;2.40;;;11.30;99.90;;;;;;5124203;27;20253;-71
2022/11/10 07:58:47;;;;;;;5.73;2.80;;;11.40;99.90;;;;;;5120825;27;20229;-71
2022/11/10 08:01:14;;;;;;;4.87;2.17;;;11.40;99.90;;;;;;5118659;27;20314;-70
2022/11/10 08:03:41;;;;;;;3.50;2.20;;;11.50;99.90;;;;;;5119857;27;20285;-71
2022/11/10 08:06:09;;;;;;;5.87;2.23;;;11.60;99.90;;;;;;5119436;27;20249;-71
2022/11/10 08:08:36;;;;;;;4.87;2.30;;;11.60;99.90;;;;;;5120111;27;20288;-71
2022/11/10 08:11:03;;;;;;;6.00;2.83;;;11.60;99.90;;;;;;5118202;27;20293;-71
2022/11/10 08:13:29;;;;;;;7.43;2.50;;;11.70;99.90;;;;;;5119801;27;20840;-71
2022/11/10 08:15:58;;;;;;;6.57;2.50;;;11.70;99.90;;;;;;5119617;27;20277;-71
2022/11/10 08:18:25;;;;;;;6.00;2.63;;;11.70;99.90;;;;;;5122495;27;20675;-71
2022/11/10 08:20:52;;;;;;;7.67;2.70;;;11.70;99.90;;;;;;5116474;27;20350;-71
2022/11/10 08:23:20;;;;;;;3.70;1.90;;;11.80;99.90;;;;;;5117037;27;20602;-71
2022/11/10 08:25:51;;;;;;;6.10;2.50;;;11.90;99.90;;;;;;5119542;27;20595;-71
2022/11/10 08:28:19;;;;;;;6.03;2.40;;;11.90;99.90;;;;;;5119069;27;20194;-71
2022/11/10 08:30:47;;;;;;;7.33;2.60;;;12.00;99.90;;;;;;5118082;27;20577;-71
2022/11/10 08:33:17;;;;;;;5.27;2.60;;;12.00;99.90;;;;;;5122287;27;20824;-70
2022/11/10 08:35:45;;;;;;;7.10;2.80;;;12.10;99.90;;;;;;5117470;27;20210;-72
2022/11/10 08:38:14;;;;;;;5.47;2.30;;;12.20;99.90;;;;;;5120153;27;20205;-72
2022/11/10 08:40:42;;;;;;;4.53;2.30;;;12.40;99.90;;;;;;5119851;27;20226;-71
2022/11/10 08:43:10;;;;;;;5.20;2.60;;;12.50;99.90;;;;;;5122108;27;20545;-72
2022/11/10 08:45:38;;;;;;;4.90;2.60;;;12.50;99.90;;;;;;5118242;27;20225;-71
2022/11/10 08:48:08;;;;;;;6.90;2.77;;;12.50;99.90;;;;;;5120426;27;20287;-71
2022/11/10 08:50:36;;;;;;;8.97;2.87;;;12.60;99.90;;;;;;5117605;27;20281;-71
2022/11/10 08:53:05;;;;;;;7.67;2.37;;;12.60;99.90;;;;;;5119763;27;20232;-71
2022/11/10 08:55:32;;;;;;;8.27;2.60;;;12.60;99.90;;;;;;5117155;27;20286;-72
2022/11/10 08:58:01;;;;;;;9.03;2.63;;;12.70;99.90;;;;;;5118131;27;20285;-71
2022/11/10 09:00:28;;;;;;;5.80;2.90;;;12.80;99.90;;;;;;5117954;27;20692;-71
2022/11/10 09:02:55;;;;;;;5.13;2.40;;;12.80;99.90;;;;;;5118424;27;20591;-71
2022/11/10 09:05:23;;;;;;;8.57;2.73;;;12.90;99.90;;;;;;5117742;27;20342;-71
2022/11/10 09:07:50;;;;;;;9.07;2.70;;;12.90;99.90;;;;;;5117684;27;20289;-71
2022/11/10 09:10:17;;;;;;;7.10;2.60;;;12.90;99.90;;;;;;5122172;27;20246;-71
2022/11/10 09:12:45;;;;;;;6.63;2.70;;;12.90;99.90;;;;;;5115665;27;20664;-71
2022/11/10 09:15:13;;;;;;;6.43;2.47;;;12.90;99.90;;;;;;5118991;27;20199;-71
2022/11/10 09:17:41;;;;;;;7.13;2.53;;;12.90;99.90;;;;;;5117308;27;20244;-70
2022/11/10 09:20:10;;;;;;;7.87;3.50;;;12.80;99.90;;;;;;5121119;27;20304;-70
2022/11/10 09:22:39;;;;;;;4.43;2.63;;;12.80;99.90;;;;;;5124771;27;20197;-70
2022/11/10 09:25:06;;;;;;;7.23;3.10;;;12.90;99.90;;;;;;5119210;27;20206;-70
2022/11/10 09:27:36;;;;;;;6.23;2.73;;;13.00;99.90;;;;;;5115861;27;20516;-70
2022/11/10 09:30:03;;;;;;;6.30;2.63;;;13.00;99.90;;;;;;5120453;27;20935;-70
2022/11/10 09:32:32;;;;;;;4.83;2.57;;;13.00;99.90;;;;;;5115967;27;20292;-71
2022/11/10 09:34:59;;;;;;;6.40;2.40;;;12.90;99.90;;;;;;5119192;27;20262;-71
2022/11/10 09:37:26;;;;;;;7.40;3.03;;;12.90;99.90;;;;;;5117530;27;20703;-71
2022/11/10 09:39:54;;;;;;;7.00;2.37;;;13.00;99.90;;;;;;5119159;28;20206;-71
2022/11/10 09:42:28;;;;;;;9.37;2.63;;;13.00;99.90;;;;;;5118877;27;20221;-71
2022/11/10 09:45:01;;;;;;;11.27;3.77;;;13.10;99.90;;;;;;5116868;27;20213;-71
2022/11/10 09:47:38;;;;;;;9.53;3.57;;;13.20;99.90;;;;;;5116391;28;20718;-71
2022/11/10 09:50:07;;;;;;;6.20;2.70;;;13.20;99.90;;;;;;5119780;27;20772;-71
2022/11/10 09:52:37;;;;;;;7.00;2.60;;;13.20;99.90;;;;;;5117414;28;20196;-71
2022/11/10 09:55:13;;;;;;;5.70;2.63;;;13.40;99.90;;;;;;5117592;27;20683;-71
2022/11/10 09:57:41;;;;;;;7.60;3.00;;;13.40;99.90;;;;;;5117620;27;20189;-71
2022/11/10 10:00:13;;;;;;;6.07;2.80;;;13.50;99.90;;;;;;5115326;27;20703;-70
2022/11/10 10:02:45;;;;;;;6.67;2.93;;;13.50;99.90;;;;;;5118328;27;21090;-71
2022/11/10 10:05:33;;;;;;;6.30;3.00;;;13.50;99.90;;;;;;5120967;27;20197;-71
2022/11/10 10:08:03;;;;;;;4.90;2.27;;;13.60;99.90;;;;;;5121224;27;20281;-70
2022/11/10 10:10:37;;;;;;;4.77;2.80;;;13.70;99.90;;;;;;5128800;27;20933;-71
2022/11/10 10:13:21;;;;;;;4.37;2.50;;;13.70;99.90;;;;;;5137958;27;20603;-71
2022/11/10 10:16:02;;;;;;;10.03;2.87;;;13.80;99.90;;;;;;5152008;27;20280;-71
2022/11/10 10:18:35;;;;;;;6.17;2.40;;;13.90;99.90;;;;;;5140193;27;20295;-71
2022/11/10 10:21:30;;;;;;;7.43;2.37;;;14.00;99.90;;;;;;5132360;27;20831;-71
2022/11/10 10:24:01;;;;;;;8.93;2.53;;;14.10;99.90;;;;;;5133393;27;20666;-71
2022/11/10 10:26:30;;;;;;;5.87;2.33;;;14.20;99.90;;;;;;5124281;27;20216;-71
2022/11/10 10:29:02;;;;;;;7.17;3.03;;;14.30;99.90;;;;;;5125227;27;20284;-71
2022/11/10 10:31:34;;;;;;;4.57;2.27;;;14.40;99.90;;;;;;5121423;27;20198;-71
2022/11/10 10:34:03;;;;;;;5.23;2.97;;;14.40;99.90;;;;;;5120948;27;20742;-71
2022/11/10 10:36:31;;;;;;;6.70;2.77;;;14.60;99.90;;;;;;5122668;27;20217;-71
2022/11/10 10:39:02;;;;;;;6.43;2.43;;;14.60;99.90;;;;;;5120374;27;20198;-71
2022/11/10 10:41:31;;;;;;;6.97;2.57;;;14.60;99.90;;;;;;5119287;27;20408;-71
2022/11/10 10:44:00;;;;;;;7.73;2.63;;;14.60;99.90;;;;;;5122965;27;20224;-71
2022/11/10 10:46:30;;;;;;;4.00;2.23;;;14.60;99.90;;;;;;5121132;27;20255;-71
2022/11/10 10:49:14;;;;;;;8.27;2.40;;;14.60;99.90;;;;;;5123841;27;20201;-71
2022/11/10 10:51:41;;;;;;;5.53;2.27;;;14.50;99.90;;;;;;5120021;27;20193;-71
2022/11/10 10:54:26;;;;;;;4.70;2.50;;;14.30;99.90;;;;;;5118820;27;20333;-71
2022/11/10 10:57:02;;;;;;;7.90;2.43;;;14.40;99.90;;;;;;5118044;27;20190;-71
2022/11/10 10:59:29;;;;;;;4.33;2.50;;;14.30;99.90;;;;;;5120770;27;20197;-71
2022/11/10 11:01:56;;;;;;;9.43;2.97;;;14.30;99.90;;;;;;5119319;27;20221;-71
2022/11/10 11:04:30;;;;;;;6.93;2.73;;;14.30;99.90;;;;;;5121434;27;20293;-71
2022/11/10 11:06:58;;;;;;;7.40;2.40;;;14.40;99.90;;;;;;5117530;27;20317;-71
2022/11/10 11:09:27;;;;;;;6.60;2.43;;;14.50;99.90;;;;;;5122475;27;20256;-71
2022/11/10 11:12:01;;;;;;;5.43;2.43;;;14.60;99.90;;;;;;5118884;27;20245;-71
2022/11/10 11:14:30;;;;;;;6.70;2.43;;;14.70;99.90;;;;;;5119096;27;20280;-71
2022/11/10 11:16:58;;;;;;;4.20;2.53;;;14.90;99.90;;;;;;5120219;27;20232;-71
2022/11/10 11:19:30;;;;;;;7.90;2.60;;;15.00;99.90;;;;;;5121011;27;20281;-71
2022/11/10 11:22:10;;;;;;;4.73;2.63;;;15.10;99.90;;;;;;5116730;27;20709;-71
2022/11/10 11:24:43;;;;;;;4.00;2.30;;;15.30;99.90;;;;;;5122195;27;20281;-71
2022/11/10 11:27:16;;;;;;;6.07;2.27;;;15.40;99.90;;;;;;5124348;27;20228;-71
2022/11/10 11:29:59;;;;;;;8.47;2.47;;;15.40;99.90;;;;;;5120213;27;20301;-71
2022/11/10 11:32:50;;;;;;;8.60;2.40;;;15.40;99.90;;;;;;5119766;27;20280;-71
2022/11/10 11:35:27;;;;;;;7.77;2.60;;;15.20;99.90;;;;;;5126513;27;20285;-71
2022/11/10 11:38:07;;;;;;;7.53;2.50;;;15.10;99.90;;;;;;5114415;27;20677;-71
2022/11/10 11:40:46;;;;;;;6.57;2.10;;;15.10;99.90;;;;;;5125916;27;20284;-72
2022/11/10 11:43:31;;;;;;;7.87;2.70;;;15.20;99.90;;;;;;5115093;27;20732;-72
2022/11/10 11:46:06;;;;;;;11.20;2.50;;;15.30;99.90;;;;;;5117563;27;20279;-71
2022/11/10 11:48:51;;;;;;;6.77;2.00;;;15.20;99.90;;;;;;5120694;27;20268;-71
2022/11/10 11:51:24;;;;;;;6.40;2.40;;;15.00;99.90;;;;;;5120371;27;20197;-72
2022/11/10 11:54:22;;;;;;;5.83;2.20;;;14.90;99.90;;;;;;5119513;27;20229;-71
2022/11/10 11:56:50;;;;;;;4.67;2.10;;;15.00;99.90;;;;;;5108756;27;20674;-71
2022/11/10 11:59:28;;;;;;;4.47;2.10;;;15.20;99.90;;;;;;5126557;27;20296;-71
2022/11/10 12:02:17;;;;;;;8.83;2.10;;;15.00;99.90;;;;;;5116979;27;20309;-71
2022/11/10 12:04:59;;;;;;;7.27;2.53;;;14.90;99.90;;;;;;5119709;27;20201;-71
2022/11/10 12:07:43;;;;;;;11.90;2.57;;;14.80;99.90;;;;;;5120760;27;20308;-71
2022/11/10 12:10:31;;;;;;;8.00;2.30;;;14.60;99.90;;;;;;5117604;27;20595;-71
2022/11/10 12:13:32;;;;;;;6.43;2.20;;;14.60;99.90;;;;;;5115211;27;20626;-72
2022/11/10 12:16:04;;;;;;;5.83;2.90;;;14.60;99.90;;;;;;5128097;27;20276;-71
2022/11/10 12:18:36;;;;;;;6.00;2.30;;;14.60;99.90;;;;;;5122345;27;20201;-71
2022/11/10 12:21:22;;;;;;;3.80;2.17;;;14.60;99.90;;;;;;5111795;27;20424;-71
2022/11/10 12:24:13;;;;;;;4.20;2.03;;;14.60;99.90;;;;;;5119472;27;20217;-72
2022/11/10 12:26:48;;;;;;;7.67;2.73;;;14.70;99.90;;;;;;5126280;27;20308;-71
2022/11/10 12:29:24;;;;;;;7.83;2.60;;;14.70;99.90;;;;;;5121886;27;20283;-71
2022/11/10 12:31:55;;;;;;;6.53;2.37;;;14.70;99.90;;;;;;5113560;27;20728;-71
2022/11/10 12:34:30;;;;;;;6.33;2.13;;;14.60;99.90;;;;;;5122386;27;20229;-71
2022/11/10 12:36:59;;;;;;;8.23;2.10;;;14.60;99.90;;;;;;5118962;27;20309;-71
2022/11/10 12:39:41;;;;;;;6.33;2.03;;;14.60;99.90;;;;;;5122292;27;20233;-71
2022/11/10 12:42:14;;;;;;;7.43;2.20;;;14.60;99.90;;;;;;5107523;28;20271;-71
2022/11/10 12:44:55;;;;;;;7.83;2.27;;;14.80;99.90;;;;;;5129655;27;20209;-71
2022/11/10 12:47:26;;;;;;;3.97;1.90;;;15.00;99.90;;;;;;5107661;28;20220;-71
2022/11/10 12:50:01;;;;;;;5.33;2.30;;;15.10;99.90;;;;;;5111005;27;20284;-71
2022/11/10 12:52:35;;;;;;;6.00;1.93;;;15.10;99.90;;;;;;5108211;28;20200;-71
2022/11/10 12:55:04;;;;;;;6.33;2.00;;;15.20;99.90;;;;;;5113397;27;20601;-71
2022/11/10 12:57:32;;;;;;;5.80;2.10;;;15.30;99.90;;;;;;5122136;27;20198;-71
2022/11/10 13:00:02;;;;;;;6.53;1.97;;;15.40;99.90;;;;;;5116566;27;20262;-71
2022/11/10 13:02:34;;;;;;;8.50;2.03;;;15.30;99.90;;;;;;5117831;27;20308;-70
2022/11/10 13:05:31;;;;;;;7.33;2.20;;;15.40;99.90;;;;;;5119700;27;20194;-71
2022/11/10 13:08:16;;;;;;;4.90;1.80;;;15.40;99.90;;;;;;5111709;27;20266;-71
2022/11/10 13:10:55;;;;;;;9.30;1.87;;;15.40;99.90;;;;;;5115473;27;20230;-71
2022/11/10 13:13:23;;;;;;;6.33;2.10;;;15.20;99.90;;;;;;5117832;27;20274;-71